sensor_id;sensor_type;location;lat;lon;timestamp;P1;durP1;ratioP1;P2;durP2;ratioP2
18084;SDS011;9169;44.492;11.372;2023-12-20T00:02:04;27.47;;;6.10;;
18084;SDS011;9169;44.492;11.372;2023-12-20T00:04:33;30.33;;;7.27;;
18084;SDS011;9169;44.492;11.372;2023-12-20T00:07:03;30.80;;;7.10;;
18084;SDS011;9169;44.492;11.372;2023-12-20T00:09:32;30.40;;;8.10;;
18084;SDS011;9169;44.492;11.372;2023-12-20T00:12:00;29.80;;;7.67;;
18084;SDS011;9169;44.492;11.372;2023-12-20T00:14:29;34.30;;;7.37;;
18084;SDS011;9169;44.492;11.372;2023-12-20T00:16:57;67.07;;;10.60;;
18084;SDS011;9169;44.492;11.372;2023-12-20T00:19:26;127.97;;;17.37;;
18084;SDS011;9169;44.492;11.372;2023-12-20T00:21:55;121.50;;;17.40;;
18084;SDS011;9169;44.492;11.372;2023-12-20T00:24:25;65.53;;;10.60;;
18084;SDS011;9169;44.492;11.372;2023-12-20T00:26:54;54.60;;;9.83;;
18084;SDS011;9169;44.492;11.372;2023-12-20T00:29:22;27.87;;;6.40;;
18084;SDS011;9169;44.492;11.372;2023-12-20T00:31:51;28.03;;;5.60;;
18084;SDS011;9169;44.492;11.372;2023-12-20T00:34:19;29.10;;;6.20;;
18084;SDS011;9169;44.492;11.372;2023-12-20T00:36:48;28.90;;;5.87;;
18084;SDS011;9169;44.492;11.372;2023-12-20T00:39:17;32.40;;;6.47;;
18084;SDS011;9169;44.492;11.372;2023-12-20T00:41:48;42.03;;;8.97;;
18084;SDS011;9169;44.492;11.372;2023-12-20T00:44:17;46.43;;;9.10;;
18084;SDS011;9169;44.492;11.372;2023-12-20T00:46:45;46.63;;;7.73;;
18084;SDS011;9169;44.492;11.372;2023-12-20T00:49:14;37.90;;;6.70;;
18084;SDS011;9169;44.492;11.372;2023-12-20T00:51:43;43.60;;;7.53;;
18084;SDS011;9169;44.492;11.372;2023-12-20T00:54:11;40.23;;;6.40;;
18084;SDS011;9169;44.492;11.372;2023-12-20T00:56:40;35.87;;;7.00;;
18084;SDS011;9169;44.492;11.372;2023-12-20T00:59:10;31.67;;;6.43;;
18084;SDS011;9169;44.492;11.372;2023-12-20T01:01:39;27.27;;;5.53;;
18084;SDS011;9169;44.492;11.372;2023-12-20T01:04:08;30.90;;;5.63;;
18084;SDS011;9169;44.492;11.372;2023-12-20T01:06:37;27.57;;;5.03;;
18084;SDS011;9169;44.492;11.372;2023-12-20T01:09:06;31.63;;;5.60;;
18084;SDS011;9169;44.492;11.372;2023-12-20T01:11:34;28.70;;;5.50;;
18084;SDS011;9169;44.492;11.372;2023-12-20T01:14:03;35.83;;;5.63;;
18084;SDS011;9169;44.492;11.372;2023-12-20T01:16:33;29.17;;;6.27;;
18084;SDS011;9169;44.492;11.372;2023-12-20T01:19:01;30.70;;;5.43;;
18084;SDS011;9169;44.492;11.372;2023-12-20T01:21:30;34.23;;;6.27;;
18084;SDS011;9169;44.492;11.372;2023-12-20T01:23:59;27.40;;;5.17;;
18084;SDS011;9169;44.492;11.372;2023-12-20T01:26:27;31.63;;;5.00;;
18084;SDS011;9169;44.492;11.372;2023-12-20T01:28:56;28.10;;;5.00;;
18084;SDS011;9169;44.492;11.372;2023-12-20T01:31:25;27.07;;;4.77;;
18084;SDS011;9169;44.492;11.372;2023-12-20T01:33:55;26.80;;;4.97;;
18084;SDS011;9169;44.492;11.372;2023-12-20T01:36:24;71.93;;;8.40;;
18084;SDS011;9169;44.492;11.372;2023-12-20T01:38:53;67.33;;;9.30;;
18084;SDS011;9169;44.492;11.372;2023-12-20T01:41:22;53.20;;;8.30;;
18084;SDS011;9169;44.492;11.372;2023-12-20T01:43:50;30.40;;;5.80;;
18084;SDS011;9169;44.492;11.372;2023-12-20T01:46:20;40.13;;;6.03;;
18084;SDS011;9169;44.492;11.372;2023-12-20T01:48:49;33.67;;;5.70;;
18084;SDS011;9169;44.492;11.372;2023-12-20T01:51:19;32.90;;;4.53;;
18084;SDS011;9169;44.492;11.372;2023-12-20T01:53:48;28.70;;;4.67;;
18084;SDS011;9169;44.492;11.372;2023-12-20T01:56:17;33.43;;;5.47;;
18084;SDS011;9169;44.492;11.372;2023-12-20T01:58:46;27.80;;;4.80;;
18084;SDS011;9169;44.492;11.372;2023-12-20T02:01:15;31.90;;;5.13;;
18084;SDS011;9169;44.492;11.372;2023-12-20T02:03:45;28.67;;;5.00;;
18084;SDS011;9169;44.492;11.372;2023-12-20T02:06:14;31.60;;;4.70;;
18084;SDS011;9169;44.492;11.372;2023-12-20T02:08:45;28.80;;;4.50;;
18084;SDS011;9169;44.492;11.372;2023-12-20T02:11:14;30.33;;;5.03;;
18084;SDS011;9169;44.492;11.372;2023-12-20T02:13:42;28.60;;;4.60;;
18084;SDS011;9169;44.492;11.372;2023-12-20T02:16:11;30.97;;;4.60;;
18084;SDS011;9169;44.492;11.372;2023-12-20T02:18:40;30.30;;;4.30;;
18084;SDS011;9169;44.492;11.372;2023-12-20T02:21:11;30.50;;;4.83;;
18084;SDS011;9169;44.492;11.372;2023-12-20T02:23:41;31.07;;;4.50;;
18084;SDS011;9169;44.492;11.372;2023-12-20T02:26:09;27.40;;;4.40;;
18084;SDS011;9169;44.492;11.372;2023-12-20T02:28:40;36.10;;;4.53;;
18084;SDS011;9169;44.492;11.372;2023-12-20T02:31:09;29.90;;;5.17;;
18084;SDS011;9169;44.492;11.372;2023-12-20T02:33:37;28.60;;;4.77;;
18084;SDS011;9169;44.492;11.372;2023-12-20T02:36:08;29.43;;;4.73;;
18084;SDS011;9169;44.492;11.372;2023-12-20T02:38:37;29.43;;;4.43;;
18084;SDS011;9169;44.492;11.372;2023-12-20T02:41:07;28.87;;;4.60;;
18084;SDS011;9169;44.492;11.372;2023-12-20T02:43:36;28.73;;;4.47;;
18084;SDS011;9169;44.492;11.372;2023-12-20T02:46:04;32.37;;;4.80;;
18084;SDS011;9169;44.492;11.372;2023-12-20T02:48:33;27.70;;;4.60;;
18084;SDS011;9169;44.492;11.372;2023-12-20T02:51:01;33.97;;;4.97;;
18084;SDS011;9169;44.492;11.372;2023-12-20T02:53:30;36.23;;;4.30;;
18084;SDS011;9169;44.492;11.372;2023-12-20T02:55:59;29.30;;;4.37;;
18084;SDS011;9169;44.492;11.372;2023-12-20T02:58:29;34.73;;;5.07;;
18084;SDS011;9169;44.492;11.372;2023-12-20T03:00:58;27.03;;;4.10;;
18084;SDS011;9169;44.492;11.372;2023-12-20T03:03:26;31.87;;;4.90;;
18084;SDS011;9169;44.492;11.372;2023-12-20T03:05:55;33.33;;;5.00;;
18084;SDS011;9169;44.492;11.372;2023-12-20T03:08:24;32.60;;;4.83;;
18084;SDS011;9169;44.492;11.372;2023-12-20T03:10:54;29.30;;;4.90;;
18084;SDS011;9169;44.492;11.372;2023-12-20T03:13:22;31.70;;;5.40;;
18084;SDS011;9169;44.492;11.372;2023-12-20T03:15:52;34.80;;;5.40;;
18084;SDS011;9169;44.492;11.372;2023-12-20T03:18:21;32.20;;;5.60;;
18084;SDS011;9169;44.492;11.372;2023-12-20T03:20:50;32.70;;;6.17;;
18084;SDS011;9169;44.492;11.372;2023-12-20T03:23:19;32.40;;;6.07;;
18084;SDS011;9169;44.492;11.372;2023-12-20T03:25:48;37.87;;;6.30;;
18084;SDS011;9169;44.492;11.372;2023-12-20T03:28:16;31.80;;;5.97;;
18084;SDS011;9169;44.492;11.372;2023-12-20T03:30:46;34.17;;;6.60;;
18084;SDS011;9169;44.492;11.372;2023-12-20T03:33:16;31.17;;;5.40;;
18084;SDS011;9169;44.492;11.372;2023-12-20T03:35:45;35.30;;;6.47;;
18084;SDS011;9169;44.492;11.372;2023-12-20T03:38:13;32.73;;;5.77;;
18084;SDS011;9169;44.492;11.372;2023-12-20T03:40:42;35.87;;;5.93;;
18084;SDS011;9169;44.492;11.372;2023-12-20T03:43:11;33.17;;;5.57;;
18084;SDS011;9169;44.492;11.372;2023-12-20T03:45:40;39.03;;;5.87;;
18084;SDS011;9169;44.492;11.372;2023-12-20T03:48:08;35.50;;;6.03;;
18084;SDS011;9169;44.492;11.372;2023-12-20T03:50:38;33.97;;;6.27;;
18084;SDS011;9169;44.492;11.372;2023-12-20T03:53:07;34.10;;;6.50;;
18084;SDS011;9169;44.492;11.372;2023-12-20T03:55:35;35.07;;;6.03;;
18084;SDS011;9169;44.492;11.372;2023-12-20T03:58:04;37.80;;;6.57;;
18084;SDS011;9169;44.492;11.372;2023-12-20T04:00:33;32.23;;;5.60;;
18084;SDS011;9169;44.492;11.372;2023-12-20T04:03:02;34.80;;;5.97;;
18084;SDS011;9169;44.492;11.372;2023-12-20T04:05:31;31.97;;;5.60;;
18084;SDS011;9169;44.492;11.372;2023-12-20T04:08:01;33.80;;;4.90;;
18084;SDS011;9169;44.492;11.372;2023-12-20T04:10:31;32.47;;;5.97;;
18084;SDS011;9169;44.492;11.372;2023-12-20T04:12:59;32.50;;;5.60;;
18084;SDS011;9169;44.492;11.372;2023-12-20T04:15:28;34.17;;;5.17;;
18084;SDS011;9169;44.492;11.372;2023-12-20T04:17:57;33.70;;;5.30;;
18084;SDS011;9169;44.492;11.372;2023-12-20T04:20:26;33.03;;;5.60;;
18084;SDS011;9169;44.492;11.372;2023-12-20T04:22:54;35.40;;;5.03;;
18084;SDS011;9169;44.492;11.372;2023-12-20T04:25:24;32.83;;;5.17;;
18084;SDS011;9169;44.492;11.372;2023-12-20T04:27:53;32.20;;;4.83;;
18084;SDS011;9169;44.492;11.372;2023-12-20T04:30:22;34.10;;;4.80;;
18084;SDS011;9169;44.492;11.372;2023-12-20T04:32:50;31.67;;;4.90;;
18084;SDS011;9169;44.492;11.372;2023-12-20T04:35:19;36.47;;;5.87;;
18084;SDS011;9169;44.492;11.372;2023-12-20T04:37:48;34.27;;;5.47;;
18084;SDS011;9169;44.492;11.372;2023-12-20T04:40:17;37.37;;;5.50;;
18084;SDS011;9169;44.492;11.372;2023-12-20T04:42:48;34.57;;;6.00;;
18084;SDS011;9169;44.492;11.372;2023-12-20T04:45:17;35.03;;;5.80;;
18084;SDS011;9169;44.492;11.372;2023-12-20T04:47:46;33.17;;;5.33;;
18084;SDS011;9169;44.492;11.372;2023-12-20T04:50:15;35.43;;;4.80;;
18084;SDS011;9169;44.492;11.372;2023-12-20T04:52:44;33.73;;;5.17;;
18084;SDS011;9169;44.492;11.372;2023-12-20T04:55:12;33.70;;;5.10;;
18084;SDS011;9169;44.492;11.372;2023-12-20T04:57:41;32.43;;;4.40;;
18084;SDS011;9169;44.492;11.372;2023-12-20T05:00:12;34.00;;;4.57;;
18084;SDS011;9169;44.492;11.372;2023-12-20T05:02:42;31.30;;;4.30;;
18084;SDS011;9169;44.492;11.372;2023-12-20T05:05:10;32.30;;;4.27;;
18084;SDS011;9169;44.492;11.372;2023-12-20T05:07:39;29.90;;;3.73;;
18084;SDS011;9169;44.492;11.372;2023-12-20T05:10:08;31.23;;;3.83;;
18084;SDS011;9169;44.492;11.372;2023-12-20T05:12:37;32.43;;;4.20;;
18084;SDS011;9169;44.492;11.372;2023-12-20T05:15:06;29.50;;;3.83;;
18084;SDS011;9169;44.492;11.372;2023-12-20T05:17:37;28.80;;;3.37;;
18084;SDS011;9169;44.492;11.372;2023-12-20T05:20:06;31.97;;;5.00;;
18084;SDS011;9169;44.492;11.372;2023-12-20T05:22:37;35.00;;;4.13;;
18084;SDS011;9169;44.492;11.372;2023-12-20T05:25:06;31.77;;;4.30;;
18084;SDS011;9169;44.492;11.372;2023-12-20T05:27:35;32.37;;;4.90;;
18084;SDS011;9169;44.492;11.372;2023-12-20T05:30:04;33.10;;;4.50;;
18084;SDS011;9169;44.492;11.372;2023-12-20T05:32:33;32.20;;;4.20;;
18084;SDS011;9169;44.492;11.372;2023-12-20T05:35:03;32.77;;;4.20;;
18084;SDS011;9169;44.492;11.372;2023-12-20T05:37:33;33.40;;;4.63;;
18084;SDS011;9169;44.492;11.372;2023-12-20T05:40:01;37.27;;;4.87;;
18084;SDS011;9169;44.492;11.372;2023-12-20T05:42:31;36.27;;;5.37;;
18084;SDS011;9169;44.492;11.372;2023-12-20T05:44:59;32.50;;;4.50;;
18084;SDS011;9169;44.492;11.372;2023-12-20T05:47:28;34.60;;;4.73;;
18084;SDS011;9169;44.492;11.372;2023-12-20T05:49:57;33.20;;;4.20;;
18084;SDS011;9169;44.492;11.372;2023-12-20T05:52:27;32.63;;;5.00;;
18084;SDS011;9169;44.492;11.372;2023-12-20T05:54:55;33.17;;;4.70;;
18084;SDS011;9169;44.492;11.372;2023-12-20T05:57:24;31.27;;;3.97;;
18084;SDS011;9169;44.492;11.372;2023-12-20T05:59:53;30.53;;;4.40;;
18084;SDS011;9169;44.492;11.372;2023-12-20T06:02:22;33.97;;;5.00;;
18084;SDS011;9169;44.492;11.372;2023-12-20T06:04:50;29.50;;;4.30;;
18084;SDS011;9169;44.492;11.372;2023-12-20T06:07:19;35.30;;;4.80;;
18084;SDS011;9169;44.492;11.372;2023-12-20T06:09:49;33.30;;;4.50;;
18084;SDS011;9169;44.492;11.372;2023-12-20T06:12:18;32.17;;;4.97;;
18084;SDS011;9169;44.492;11.372;2023-12-20T06:14:46;30.17;;;4.13;;
18084;SDS011;9169;44.492;11.372;2023-12-20T06:17:15;34.33;;;4.80;;
18084;SDS011;9169;44.492;11.372;2023-12-20T06:19:43;38.53;;;5.60;;
18084;SDS011;9169;44.492;11.372;2023-12-20T06:22:15;31.80;;;4.57;;
18084;SDS011;9169;44.492;11.372;2023-12-20T06:24:44;31.70;;;4.77;;
18084;SDS011;9169;44.492;11.372;2023-12-20T06:27:14;36.70;;;5.30;;
18084;SDS011;9169;44.492;11.372;2023-12-20T06:29:43;36.93;;;6.43;;
18084;SDS011;9169;44.492;11.372;2023-12-20T06:32:12;36.37;;;4.60;;
18084;SDS011;9169;44.492;11.372;2023-12-20T06:34:41;35.43;;;4.67;;
18084;SDS011;9169;44.492;11.372;2023-12-20T06:37:10;35.67;;;5.73;;
18084;SDS011;9169;44.492;11.372;2023-12-20T06:39:38;34.47;;;5.50;;
18084;SDS011;9169;44.492;11.372;2023-12-20T06:42:07;31.67;;;4.90;;
18084;SDS011;9169;44.492;11.372;2023-12-20T06:44:37;35.93;;;5.77;;
18084;SDS011;9169;44.492;11.372;2023-12-20T06:47:06;34.17;;;5.70;;
18084;SDS011;9169;44.492;11.372;2023-12-20T06:49:35;39.17;;;6.57;;
18084;SDS011;9169;44.492;11.372;2023-12-20T06:52:04;37.27;;;6.13;;
18084;SDS011;9169;44.492;11.372;2023-12-20T06:54:32;37.40;;;6.37;;
18084;SDS011;9169;44.492;11.372;2023-12-20T06:57:02;38.30;;;5.90;;
18084;SDS011;9169;44.492;11.372;2023-12-20T06:59:31;40.67;;;6.83;;
18084;SDS011;9169;44.492;11.372;2023-12-20T07:02:01;34.07;;;5.80;;
18084;SDS011;9169;44.492;11.372;2023-12-20T07:04:30;39.77;;;6.50;;
18084;SDS011;9169;44.492;11.372;2023-12-20T07:06:59;40.33;;;5.87;;
18084;SDS011;9169;44.492;11.372;2023-12-20T07:09:27;37.47;;;5.93;;
18084;SDS011;9169;44.492;11.372;2023-12-20T07:11:56;40.03;;;7.00;;
18084;SDS011;9169;44.492;11.372;2023-12-20T07:14:25;40.97;;;7.37;;
18084;SDS011;9169;44.492;11.372;2023-12-20T07:16:54;45.00;;;7.57;;
18084;SDS011;9169;44.492;11.372;2023-12-20T07:19:25;38.80;;;7.30;;
18084;SDS011;9169;44.492;11.372;2023-12-20T07:21:54;42.40;;;7.80;;
18084;SDS011;9169;44.492;11.372;2023-12-20T07:24:23;39.43;;;7.13;;
18084;SDS011;9169;44.492;11.372;2023-12-20T07:26:52;37.77;;;6.67;;
18084;SDS011;9169;44.492;11.372;2023-12-20T07:29:20;36.10;;;6.83;;
18084;SDS011;9169;44.492;11.372;2023-12-20T07:31:49;38.97;;;6.87;;
18084;SDS011;9169;44.492;11.372;2023-12-20T07:34:18;43.57;;;7.10;;
18084;SDS011;9169;44.492;11.372;2023-12-20T07:36:49;48.23;;;7.50;;
18084;SDS011;9169;44.492;11.372;2023-12-20T07:39:17;47.83;;;7.03;;
18084;SDS011;9169;44.492;11.372;2023-12-20T07:41:46;36.43;;;6.77;;
18084;SDS011;9169;44.492;11.372;2023-12-20T07:44:15;43.10;;;6.30;;
18084;SDS011;9169;44.492;11.372;2023-12-20T07:46:44;35.47;;;6.73;;
18084;SDS011;9169;44.492;11.372;2023-12-20T07:49:13;43.30;;;7.97;;
18084;SDS011;9169;44.492;11.372;2023-12-20T07:51:41;44.00;;;7.00;;
18084;SDS011;9169;44.492;11.372;2023-12-20T07:54:11;39.70;;;6.80;;
18084;SDS011;9169;44.492;11.372;2023-12-20T07:56:40;34.67;;;6.47;;
18084;SDS011;9169;44.492;11.372;2023-12-20T07:59:09;38.10;;;6.77;;
18084;SDS011;9169;44.492;11.372;2023-12-20T08:01:41;36.27;;;6.77;;
18084;SDS011;9169;44.492;11.372;2023-12-20T08:04:10;34.90;;;6.60;;
18084;SDS011;9169;44.492;11.372;2023-12-20T08:06:39;30.30;;;6.10;;
18084;SDS011;9169;44.492;11.372;2023-12-20T08:09:07;31.87;;;6.07;;
18084;SDS011;9169;44.492;11.372;2023-12-20T08:11:38;35.77;;;7.10;;
18084;SDS011;9169;44.492;11.372;2023-12-20T08:14:07;36.90;;;7.33;;
18084;SDS011;9169;44.492;11.372;2023-12-20T08:16:35;30.10;;;6.47;;
18084;SDS011;9169;44.492;11.372;2023-12-20T08:19:04;37.10;;;7.43;;
18084;SDS011;9169;44.492;11.372;2023-12-20T08:21:33;43.83;;;8.40;;
18084;SDS011;9169;44.492;11.372;2023-12-20T08:24:03;42.87;;;8.33;;
18084;SDS011;9169;44.492;11.372;2023-12-20T08:26:32;58.83;;;8.57;;
18084;SDS011;9169;44.492;11.372;2023-12-20T08:29:02;47.60;;;7.67;;
18084;SDS011;9169;44.492;11.372;2023-12-20T08:31:31;29.20;;;6.33;;
18084;SDS011;9169;44.492;11.372;2023-12-20T08:34:01;32.50;;;6.23;;
18084;SDS011;9169;44.492;11.372;2023-12-20T08:36:30;31.63;;;6.03;;
18084;SDS011;9169;44.492;11.372;2023-12-20T08:38:59;29.47;;;6.80;;
18084;SDS011;9169;44.492;11.372;2023-12-20T08:41:30;32.23;;;6.60;;
18084;SDS011;9169;44.492;11.372;2023-12-20T08:43:59;28.03;;;6.60;;
18084;SDS011;9169;44.492;11.372;2023-12-20T08:46:29;28.13;;;6.60;;
18084;SDS011;9169;44.492;11.372;2023-12-20T08:48:57;27.40;;;6.30;;
18084;SDS011;9169;44.492;11.372;2023-12-20T08:51:27;27.90;;;6.40;;
18084;SDS011;9169;44.492;11.372;2023-12-20T08:53:56;34.03;;;6.57;;
18084;SDS011;9169;44.492;11.372;2023-12-20T08:56:24;26.10;;;6.87;;
18084;SDS011;9169;44.492;11.372;2023-12-20T08:58:53;24.80;;;7.40;;
18084;SDS011;9169;44.492;11.372;2023-12-20T09:01:22;27.13;;;7.87;;
18084;SDS011;9169;44.492;11.372;2023-12-20T09:03:52;24.67;;;8.50;;
18084;SDS011;9169;44.492;11.372;2023-12-20T09:06:21;27.67;;;8.70;;
18084;SDS011;9169;44.492;11.372;2023-12-20T09:08:50;29.60;;;9.60;;
18084;SDS011;9169;44.492;11.372;2023-12-20T09:11:19;28.10;;;11.90;;
18084;SDS011;9169;44.492;11.372;2023-12-20T09:13:47;33.00;;;13.20;;
18084;SDS011;9169;44.492;11.372;2023-12-20T09:16:16;36.07;;;14.27;;
18084;SDS011;9169;44.492;11.372;2023-12-20T09:18:45;34.80;;;15.50;;
18084;SDS011;9169;44.492;11.372;2023-12-20T09:21:15;36.93;;;17.07;;
18084;SDS011;9169;44.492;11.372;2023-12-20T09:23:44;36.53;;;17.33;;
18084;SDS011;9169;44.492;11.372;2023-12-20T09:26:13;41.33;;;16.93;;
18084;SDS011;9169;44.492;11.372;2023-12-20T09:28:42;41.27;;;17.67;;
18084;SDS011;9169;44.492;11.372;2023-12-20T09:31:10;39.80;;;18.07;;
18084;SDS011;9169;44.492;11.372;2023-12-20T09:33:39;39.00;;;19.00;;
18084;SDS011;9169;44.492;11.372;2023-12-20T09:36:10;36.97;;;18.30;;
18084;SDS011;9169;44.492;11.372;2023-12-20T09:38:40;38.53;;;17.37;;
18084;SDS011;9169;44.492;11.372;2023-12-20T09:41:11;34.90;;;16.27;;
18084;SDS011;9169;44.492;11.372;2023-12-20T09:43:41;38.03;;;18.00;;
18084;SDS011;9169;44.492;11.372;2023-12-20T09:46:10;33.50;;;15.13;;
18084;SDS011;9169;44.492;11.372;2023-12-20T09:48:43;34.83;;;14.13;;
18084;SDS011;9169;44.492;11.372;2023-12-20T09:51:13;35.40;;;13.97;;
18084;SDS011;9169;44.492;11.372;2023-12-20T09:53:44;33.60;;;13.60;;
18084;SDS011;9169;44.492;11.372;2023-12-20T09:56:17;31.53;;;13.37;;
18084;SDS011;9169;44.492;11.372;2023-12-20T09:58:46;29.73;;;10.80;;
18084;SDS011;9169;44.492;11.372;2023-12-20T10:01:15;29.10;;;11.90;;
18084;SDS011;9169;44.492;11.372;2023-12-20T10:03:45;26.67;;;11.33;;
18084;SDS011;9169;44.492;11.372;2023-12-20T10:06:14;32.83;;;12.33;;
18084;SDS011;9169;44.492;11.372;2023-12-20T10:08:44;31.43;;;12.17;;
18084;SDS011;9169;44.492;11.372;2023-12-20T10:11:13;26.83;;;12.97;;
18084;SDS011;9169;44.492;11.372;2023-12-20T10:13:44;28.10;;;12.17;;
18084;SDS011;9169;44.492;11.372;2023-12-20T10:16:15;29.40;;;12.90;;
18084;SDS011;9169;44.492;11.372;2023-12-20T10:18:44;24.60;;;12.57;;
18084;SDS011;9169;44.492;11.372;2023-12-20T10:21:14;28.80;;;12.90;;
18084;SDS011;9169;44.492;11.372;2023-12-20T10:23:44;29.00;;;12.47;;
18084;SDS011;9169;44.492;11.372;2023-12-20T10:26:20;26.27;;;12.20;;
18084;SDS011;9169;44.492;11.372;2023-12-20T10:28:50;31.90;;;13.20;;
18084;SDS011;9169;44.492;11.372;2023-12-20T10:31:26;24.07;;;11.80;;
18084;SDS011;9169;44.492;11.372;2023-12-20T10:33:56;28.30;;;11.90;;
18084;SDS011;9169;44.492;11.372;2023-12-20T10:36:27;29.07;;;12.67;;
18084;SDS011;9169;44.492;11.372;2023-12-20T10:38:58;24.80;;;11.60;;
18084;SDS011;9169;44.492;11.372;2023-12-20T10:41:28;24.93;;;11.90;;
18084;SDS011;9169;44.492;11.372;2023-12-20T10:43:58;25.40;;;11.07;;
18084;SDS011;9169;44.492;11.372;2023-12-20T10:46:29;28.20;;;11.70;;
18084;SDS011;9169;44.492;11.372;2023-12-20T10:48:59;21.67;;;10.40;;
18084;SDS011;9169;44.492;11.372;2023-12-20T10:51:31;20.33;;;10.00;;
18084;SDS011;9169;44.492;11.372;2023-12-20T10:54:02;25.83;;;11.83;;
18084;SDS011;9169;44.492;11.372;2023-12-20T10:56:32;22.73;;;11.07;;
18084;SDS011;9169;44.492;11.372;2023-12-20T10:59:02;22.43;;;10.50;;
18084;SDS011;9169;44.492;11.372;2023-12-20T11:01:33;22.97;;;10.40;;
18084;SDS011;9169;44.492;11.372;2023-12-20T11:04:03;23.77;;;10.77;;
18084;SDS011;9169;44.492;11.372;2023-12-20T11:06:40;19.83;;;10.40;;
18084;SDS011;9169;44.492;11.372;2023-12-20T11:09:17;24.57;;;11.00;;
18084;SDS011;9169;44.492;11.372;2023-12-20T11:11:55;23.07;;;11.07;;
18084;SDS011;9169;44.492;11.372;2023-12-20T11:14:31;25.90;;;11.37;;
18084;SDS011;9169;44.492;11.372;2023-12-20T11:17:06;21.87;;;10.40;;
18084;SDS011;9169;44.492;11.372;2023-12-20T11:19:36;22.33;;;10.50;;
18084;SDS011;9169;44.492;11.372;2023-12-20T11:22:06;23.00;;;10.50;;
18084;SDS011;9169;44.492;11.372;2023-12-20T11:24:36;24.63;;;11.13;;
18084;SDS011;9169;44.492;11.372;2023-12-20T11:27:13;22.93;;;10.87;;
18084;SDS011;9169;44.492;11.372;2023-12-20T11:29:41;21.13;;;10.40;;
18084;SDS011;9169;44.492;11.372;2023-12-20T11:32:28;20.50;;;11.00;;
18084;SDS011;9169;44.492;11.372;2023-12-20T11:34:57;20.47;;;10.93;;
18084;SDS011;9169;44.492;11.372;2023-12-20T11:37:30;22.30;;;11.53;;
18084;SDS011;9169;44.492;11.372;2023-12-20T11:40:02;21.63;;;11.80;;
18084;SDS011;9169;44.492;11.372;2023-12-20T11:42:37;26.60;;;12.27;;
18084;SDS011;9169;44.492;11.372;2023-12-20T11:45:08;26.30;;;13.23;;
18084;SDS011;9169;44.492;11.372;2023-12-20T11:47:37;20.73;;;12.33;;
18084;SDS011;9169;44.492;11.372;2023-12-20T11:50:07;23.10;;;13.13;;
18084;SDS011;9169;44.492;11.372;2023-12-20T11:52:36;30.97;;;14.67;;
18084;SDS011;9169;44.492;11.372;2023-12-20T11:55:06;30.60;;;13.17;;
18084;SDS011;9169;44.492;11.372;2023-12-20T11:57:36;23.47;;;13.60;;
18084;SDS011;9169;44.492;11.372;2023-12-20T12:00:05;25.17;;;13.73;;
18084;SDS011;9169;44.492;11.372;2023-12-20T12:02:40;27.10;;;13.33;;
18084;SDS011;9169;44.492;11.372;2023-12-20T12:05:10;28.90;;;14.63;;
18084;SDS011;9169;44.492;11.372;2023-12-20T12:07:39;34.57;;;14.80;;
18084;SDS011;9169;44.492;11.372;2023-12-20T12:10:10;27.13;;;14.20;;
18084;SDS011;9169;44.492;11.372;2023-12-20T12:12:38;22.27;;;13.40;;
18084;SDS011;9169;44.492;11.372;2023-12-20T12:15:08;35.30;;;15.43;;
18084;SDS011;9169;44.492;11.372;2023-12-20T12:17:37;25.93;;;15.60;;
18084;SDS011;9169;44.492;11.372;2023-12-20T12:20:06;30.50;;;15.20;;
18084;SDS011;9169;44.492;11.372;2023-12-20T12:22:37;29.80;;;17.47;;
18084;SDS011;9169;44.492;11.372;2023-12-20T12:25:11;32.00;;;18.40;;
18084;SDS011;9169;44.492;11.372;2023-12-20T12:27:42;28.57;;;17.17;;
18084;SDS011;9169;44.492;11.372;2023-12-20T12:30:11;26.30;;;17.27;;
18084;SDS011;9169;44.492;11.372;2023-12-20T12:32:40;35.33;;;18.00;;
18084;SDS011;9169;44.492;11.372;2023-12-20T12:35:09;27.73;;;17.37;;
18084;SDS011;9169;44.492;11.372;2023-12-20T12:37:39;26.17;;;16.97;;
18084;SDS011;9169;44.492;11.372;2023-12-20T12:40:11;27.17;;;17.70;;
18084;SDS011;9169;44.492;11.372;2023-12-20T12:42:41;27.13;;;17.07;;
18084;SDS011;9169;44.492;11.372;2023-12-20T12:45:11;30.80;;;17.87;;
18084;SDS011;9169;44.492;11.372;2023-12-20T12:47:40;24.90;;;15.70;;
18084;SDS011;9169;44.492;11.372;2023-12-20T12:50:09;25.10;;;15.90;;
18084;SDS011;9169;44.492;11.372;2023-12-20T12:52:38;24.67;;;15.30;;
18084;SDS011;9169;44.492;11.372;2023-12-20T12:55:07;28.10;;;14.87;;
18084;SDS011;9169;44.492;11.372;2023-12-20T12:57:37;26.43;;;14.57;;
18084;SDS011;9169;44.492;11.372;2023-12-20T13:00:06;26.50;;;14.00;;
18084;SDS011;9169;44.492;11.372;2023-12-20T13:02:36;23.83;;;13.70;;
18084;SDS011;9169;44.492;11.372;2023-12-20T13:05:08;23.00;;;13.40;;
18084;SDS011;9169;44.492;11.372;2023-12-20T13:07:37;26.90;;;14.67;;
18084;SDS011;9169;44.492;11.372;2023-12-20T13:10:07;23.50;;;14.23;;
18084;SDS011;9169;44.492;11.372;2023-12-20T13:12:39;24.60;;;15.47;;
18084;SDS011;9169;44.492;11.372;2023-12-20T13:15:08;25.03;;;15.43;;
18084;SDS011;9169;44.492;11.372;2023-12-20T13:17:37;28.67;;;16.50;;
18084;SDS011;9169;44.492;11.372;2023-12-20T13:20:07;28.90;;;16.40;;
18084;SDS011;9169;44.492;11.372;2023-12-20T13:22:36;26.83;;;16.73;;
18084;SDS011;9169;44.492;11.372;2023-12-20T13:25:05;32.13;;;17.60;;
18084;SDS011;9169;44.492;11.372;2023-12-20T13:27:37;28.70;;;17.50;;
18084;SDS011;9169;44.492;11.372;2023-12-20T13:30:09;31.47;;;18.17;;
18084;SDS011;9169;44.492;11.372;2023-12-20T13:32:38;29.67;;;17.60;;
18084;SDS011;9169;44.492;11.372;2023-12-20T13:35:09;35.10;;;17.97;;
18084;SDS011;9169;44.492;11.372;2023-12-20T13:37:38;36.10;;;18.20;;
18084;SDS011;9169;44.492;11.372;2023-12-20T13:40:07;36.30;;;18.50;;
18084;SDS011;9169;44.492;11.372;2023-12-20T13:42:37;36.77;;;19.50;;
18084;SDS011;9169;44.492;11.372;2023-12-20T13:45:08;30.83;;;18.20;;
18084;SDS011;9169;44.492;11.372;2023-12-20T13:47:37;35.90;;;18.27;;
18084;SDS011;9169;44.492;11.372;2023-12-20T13:50:06;36.40;;;17.97;;
18084;SDS011;9169;44.492;11.372;2023-12-20T13:52:39;31.50;;;17.57;;
18084;SDS011;9169;44.492;11.372;2023-12-20T13:55:08;38.50;;;17.10;;
18084;SDS011;9169;44.492;11.372;2023-12-20T13:57:37;35.20;;;17.53;;
18084;SDS011;9169;44.492;11.372;2023-12-20T14:00:10;28.53;;;16.33;;
18084;SDS011;9169;44.492;11.372;2023-12-20T14:02:41;36.03;;;17.40;;
18084;SDS011;9169;44.492;11.372;2023-12-20T14:05:10;33.40;;;17.90;;
18084;SDS011;9169;44.492;11.372;2023-12-20T14:07:40;33.87;;;16.70;;
18084;SDS011;9169;44.492;11.372;2023-12-20T14:10:11;31.40;;;16.60;;
18084;SDS011;9169;44.492;11.372;2023-12-20T14:12:42;36.40;;;18.80;;
18084;SDS011;9169;44.492;11.372;2023-12-20T14:15:11;38.80;;;17.67;;
18084;SDS011;9169;44.492;11.372;2023-12-20T14:17:40;31.13;;;17.77;;
18084;SDS011;9169;44.492;11.372;2023-12-20T14:20:09;39.87;;;18.90;;
18084;SDS011;9169;44.492;11.372;2023-12-20T14:22:40;37.20;;;18.60;;
18084;SDS011;9169;44.492;11.372;2023-12-20T14:25:11;35.37;;;19.10;;
18084;SDS011;9169;44.492;11.372;2023-12-20T14:27:41;42.30;;;18.53;;
18084;SDS011;9169;44.492;11.372;2023-12-20T14:30:11;32.80;;;16.90;;
18084;SDS011;9169;44.492;11.372;2023-12-20T14:32:42;36.63;;;17.93;;
18084;SDS011;9169;44.492;11.372;2023-12-20T14:35:11;33.03;;;17.30;;
18084;SDS011;9169;44.492;11.372;2023-12-20T14:37:40;36.40;;;18.60;;
18084;SDS011;9169;44.492;11.372;2023-12-20T14:40:09;33.13;;;17.83;;
18084;SDS011;9169;44.492;11.372;2023-12-20T14:42:43;32.93;;;18.47;;